createdAt,value
2019-01-28T00:00:18.843Z,4.66
2019-01-28T00:02:47.099Z,4.59
2019-01-28T00:05:15.367Z,4.52
2019-01-28T00:07:43.606Z,4.49
2019-01-28T00:10:11.886Z,4.47
2019-01-28T00:12:40.135Z,4.45
2019-01-28T00:15:08.868Z,4.40
2019-01-28T00:17:37.161Z,4.40
2019-01-28T00:20:06.873Z,4.36
2019-01-28T00:22:35.119Z,4.32
2019-01-28T00:25:03.403Z,4.29
2019-01-28T00:27:31.654Z,4.25
2019-01-28T00:29:59.966Z,4.23
2019-01-28T00:32:28.211Z,4.17
2019-01-28T00:34:56.547Z,4.09
2019-01-28T00:37:24.881Z,4.01
2019-01-28T00:39:53.139Z,3.90
2019-01-28T00:42:21.388Z,3.84
2019-01-28T00:44:49.646Z,3.82
2019-01-28T00:47:17.903Z,3.77
2019-01-28T00:49:46.191Z,3.72
2019-01-28T00:52:14.544Z,3.69
2019-01-28T00:54:42.823Z,3.68
2019-01-28T00:57:11.075Z,3.57
2019-01-28T00:59:41.021Z,3.53
2019-01-28T01:02:09.277Z,3.49
2019-01-28T01:04:37.588Z,3.43
2019-01-28T01:07:05.798Z,3.29
2019-01-28T01:09:34.041Z,3.23
2019-01-28T01:12:02.325Z,3.21
2019-01-28T01:14:30.573Z,3.17
2019-01-28T01:16:58.857Z,3.15
2019-01-28T01:19:27.114Z,3.15
2019-01-28T01:21:55.484Z,3.14
2019-01-28T01:24:23.734Z,3.14
2019-01-28T01:26:52.071Z,3.11
2019-01-28T01:29:20.354Z,3.13
2019-01-28T01:31:48.615Z,3.08
2019-01-28T01:34:16.930Z,3.03
2019-01-28T01:36:45.221Z,3.02
2019-01-28T01:39:13.483Z,3.05
2019-01-28T01:41:41.746Z,3.02
2019-01-28T01:44:10.019Z,3.01
2019-01-28T01:46:38.305Z,2.94
2019-01-28T01:49:06.996Z,2.89
2019-01-28T01:51:35.279Z,2.84
2019-01-28T01:54:03.528Z,2.81
2019-01-28T01:56:31.793Z,2.73
2019-01-28T01:59:00.099Z,2.78
2019-01-28T02:01:28.408Z,2.77
2019-01-28T02:03:56.653Z,2.71
2019-01-28T02:06:24.989Z,2.70
2019-01-28T02:08:53.242Z,2.70
2019-01-28T02:11:21.520Z,2.66
2019-01-28T02:13:49.823Z,2.64
2019-01-28T02:16:18.090Z,2.68
2019-01-28T02:18:46.351Z,2.68
2019-01-28T02:21:14.626Z,2.65
2019-01-28T02:23:42.874Z,2.63
2019-01-28T02:26:11.154Z,2.60
2019-01-28T02:28:39.491Z,2.57
2019-01-28T02:31:07.820Z,2.54
2019-01-28T02:33:36.079Z,2.53
2019-01-28T02:36:04.333Z,2.47
2019-01-28T02:38:32.609Z,2.49
2019-01-28T02:41:00.867Z,2.51
2019-01-28T02:43:29.113Z,2.46
2019-01-28T02:45:57.421Z,2.49
2019-01-28T02:48:25.683Z,2.49
2019-01-28T02:50:53.990Z,2.49
2019-01-28T02:53:22.256Z,2.49
2019-01-28T02:55:50.505Z,2.51
2019-01-28T02:58:18.786Z,2.51
2019-01-28T03:00:47.091Z,2.49
2019-01-28T03:03:15.401Z,2.52
2019-01-28T03:05:43.701Z,2.53
2019-01-28T03:08:11.949Z,2.53
2019-01-28T03:10:40.211Z,2.52
2019-01-28T03:13:08.487Z,2.53
2019-01-28T03:15:36.744Z,2.57
2019-01-28T03:18:04.993Z,2.59
2019-01-28T03:20:33.256Z,2.59
2019-01-28T03:23:01.543Z,2.62
2019-01-28T03:25:29.854Z,2.61
2019-01-28T03:27:58.099Z,2.64
2019-01-28T03:30:26.442Z,2.62
2019-01-28T03:32:54.702Z,2.63
2019-01-28T03:35:22.949Z,2.64
2019-01-28T03:37:51.199Z,2.65
2019-01-28T03:40:20.809Z,2.66
2019-01-28T03:42:50.015Z,2.67
2019-01-28T03:45:20.012Z,2.68
2019-01-28T03:47:48.269Z,2.65
2019-01-28T03:50:18.067Z,2.62
2019-01-28T03:52:46.549Z,1.54
2019-01-28T03:55:14.943Z,2.61
2019-01-28T03:57:43.184Z,2.58
2019-01-28T04:00:17.051Z,2.58
2019-01-28T04:02:45.380Z,2.59
2019-01-28T04:05:13.665Z,2.55
2019-01-28T04:07:41.912Z,2.58
2019-01-28T04:10:21.762Z,2.57
2019-01-28T04:12:50.038Z,2.58
2019-01-28T04:15:20.229Z,2.58
2019-01-28T04:17:48.522Z,2.60
2019-01-28T04:20:16.932Z,2.61
2019-01-28T04:22:45.220Z,2.60
2019-01-28T04:25:13.806Z,2.59
2019-01-28T04:27:42.070Z,2.59
2019-01-28T04:30:18.663Z,2.56
2019-01-28T04:32:46.930Z,2.52
2019-01-28T04:35:15.194Z,2.53
2019-01-28T04:37:43.434Z,2.50
2019-01-28T04:40:15.966Z,2.49
2019-01-28T04:42:45.995Z,2.49
2019-01-28T04:45:20.248Z,2.50
2019-01-28T04:47:49.104Z,2.48
2019-01-28T04:50:19.063Z,2.46
2019-01-28T04:52:47.305Z,2.46
2019-01-28T04:55:15.952Z,2.47
2019-01-28T04:57:44.340Z,2.43
2019-01-28T05:00:24.044Z,2.42
2019-01-28T05:02:52.325Z,2.41
2019-01-28T05:05:20.571Z,2.42
2019-01-28T05:07:48.836Z,2.40
2019-01-28T05:10:19.376Z,2.41
2019-01-28T05:12:47.623Z,2.39
2019-01-28T05:15:17.732Z,2.43
2019-01-28T05:17:46.046Z,2.39
2019-01-28T05:20:22.219Z,2.37
2019-01-28T05:22:50.475Z,2.35
2019-01-28T05:25:18.715Z,2.24
2019-01-28T05:27:46.995Z,2.24
2019-01-28T05:30:17.838Z,2.23
2019-01-28T05:32:46.108Z,2.18
2019-01-28T05:35:16.743Z,2.16
2019-01-28T05:37:45.003Z,2.11
2019-01-28T05:40:19.555Z,2.09
2019-01-28T05:42:47.824Z,2.04
2019-01-28T05:45:17.516Z,2.02
2019-01-28T05:47:45.791Z,2.01
2019-01-28T05:50:15.743Z,2.01
2019-01-28T05:52:43.988Z,2.06
2019-01-28T05:55:14.187Z,2.07
2019-01-28T05:57:42.472Z,2.08
2019-01-28T06:00:16.710Z,2.10
2019-01-28T06:02:44.954Z,2.10
2019-01-28T06:05:13.268Z,2.09
2019-01-28T06:07:41.541Z,2.10
2019-01-28T06:10:13.050Z,2.11
2019-01-28T06:12:41.325Z,2.16
2019-01-28T06:15:12.925Z,2.17
2019-01-28T06:17:41.187Z,2.17
2019-01-28T06:20:15.118Z,2.15
2019-01-28T06:22:43.384Z,2.10
2019-01-28T06:25:11.653Z,2.07
2019-01-28T06:27:39.903Z,2.06
2019-01-28T06:30:14.052Z,2.05
2019-01-28T06:32:42.304Z,2.06
2019-01-28T06:35:10.576Z,2.12
2019-01-28T06:37:38.833Z,2.16
2019-01-28T06:40:10.576Z,2.17
2019-01-28T06:42:38.826Z,2.18
2019-01-28T06:45:10.613Z,2.19
2019-01-28T06:47:46.419Z,2.24
2019-01-28T06:50:12.112Z,2.28
2019-01-28T06:52:40.366Z,2.27
2019-01-28T06:55:10.369Z,2.29
2019-01-28T06:57:38.615Z,2.29
2019-01-28T07:00:15.873Z,2.30
2019-01-28T07:02:44.139Z,2.27
2019-01-28T07:05:12.434Z,2.30
2019-01-28T07:07:40.669Z,2.33
2019-01-28T07:10:10.270Z,2.36
2019-01-28T07:12:38.548Z,2.41
2019-01-28T07:15:09.593Z,2.42
2019-01-28T07:17:37.841Z,2.43
2019-01-28T07:20:09.528Z,2.46
2019-01-28T07:22:37.807Z,2.43
2019-01-28T07:25:06.125Z,2.44
2019-01-28T07:27:34.403Z,2.42
2019-01-28T07:30:02.645Z,2.45
2019-01-28T07:32:30.907Z,2.42
2019-01-28T07:34:59.278Z,2.41
2019-01-28T07:37:27.525Z,2.44
2019-01-28T07:39:55.827Z,2.51
2019-01-28T07:42:24.082Z,2.50
2019-01-28T07:44:52.331Z,2.53
2019-01-28T07:47:20.603Z,2.52
2019-01-28T07:49:48.852Z,2.53
2019-01-28T07:52:17.099Z,2.52
2019-01-28T07:54:45.349Z,2.56
2019-01-28T07:57:13.621Z,2.57
2019-01-28T07:59:41.936Z,2.61
2019-01-28T08:02:10.208Z,2.65
2019-01-28T08:04:38.453Z,2.69
2019-01-28T08:07:06.728Z,2.72
2019-01-28T08:09:34.977Z,2.75
2019-01-28T08:12:03.228Z,2.80
2019-01-28T08:14:31.491Z,2.84
2019-01-28T08:16:59.729Z,2.87
2019-01-28T08:19:28.000Z,2.88
2019-01-28T08:21:56.248Z,2.95
2019-01-28T08:24:24.518Z,2.99
2019-01-28T08:26:52.769Z,3.01
2019-01-28T08:29:21.041Z,3.05
2019-01-28T08:31:49.288Z,3.09
2019-01-28T08:34:17.560Z,3.11
2019-01-28T08:36:45.829Z,3.16
2019-01-28T08:39:14.109Z,3.18
2019-01-28T08:41:42.366Z,3.16
2019-01-28T08:44:10.609Z,3.18
2019-01-28T08:46:38.892Z,3.20
2019-01-28T08:49:07.135Z,3.23
2019-01-28T08:51:35.392Z,3.27
2019-01-28T08:54:03.642Z,3.30
2019-01-28T08:56:31.883Z,3.32
2019-01-28T08:59:00.141Z,3.35
2019-01-28T09:01:28.395Z,3.39
2019-01-28T09:03:56.639Z,3.39
2019-01-28T09:06:24.896Z,3.39
2019-01-28T09:08:53.163Z,3.41
2019-01-28T09:11:21.410Z,3.45
2019-01-28T09:13:49.663Z,3.50
2019-01-28T09:16:17.936Z,3.53
2019-01-28T09:18:46.191Z,3.54
2019-01-28T09:21:14.450Z,3.60
2019-01-28T09:23:42.691Z,3.63
2019-01-28T09:26:10.949Z,3.66
2019-01-28T09:28:39.192Z,3.68
2019-01-28T09:31:07.440Z,3.72
2019-01-28T09:33:35.699Z,3.76
2019-01-28T09:36:03.940Z,3.85
2019-01-28T09:38:32.214Z,3.88
2019-01-28T09:41:00.480Z,3.94
2019-01-28T09:43:28.788Z,3.98
2019-01-28T09:45:57.050Z,4.01
2019-01-28T09:48:25.295Z,4.06
2019-01-28T09:50:53.540Z,4.14
2019-01-28T09:53:21.799Z,4.17
2019-01-28T09:55:50.057Z,4.21
2019-01-28T09:58:18.303Z,4.27
2019-01-28T10:00:47.994Z,4.32
2019-01-28T10:03:16.439Z,4.38
2019-01-28T10:05:44.678Z,4.45
2019-01-28T10:08:12.943Z,4.56
2019-01-28T10:10:41.227Z,4.68
2019-01-28T10:13:09.473Z,4.75
2019-01-28T10:15:37.725Z,4.78
2019-01-28T10:18:06.161Z,4.78
2019-01-28T10:20:36.855Z,4.81
2019-01-28T10:23:05.110Z,4.82
2019-01-28T10:25:33.363Z,4.79
2019-01-28T10:28:01.664Z,4.79
2019-01-28T10:30:35.228Z,4.82
2019-01-28T10:33:03.524Z,4.75
2019-01-28T10:35:32.034Z,4.69
2019-01-28T10:38:00.338Z,4.69
2019-01-28T10:40:34.689Z,4.67
2019-01-28T10:43:02.943Z,4.64
2019-01-28T10:45:31.236Z,4.60
2019-01-28T10:48:02.598Z,4.57
2019-01-28T10:50:30.928Z,4.53
2019-01-28T10:52:59.218Z,4.48
2019-01-28T10:55:27.528Z,4.48
2019-01-28T10:57:56.513Z,4.48
2019-01-28T11:00:29.882Z,4.49
2019-01-28T11:02:58.261Z,4.48
2019-01-28T11:05:26.531Z,4.52
2019-01-28T11:07:57.976Z,4.54
2019-01-28T11:10:27.936Z,4.59
2019-01-28T11:12:56.527Z,4.57
2019-01-28T11:15:27.103Z,4.54
2019-01-28T11:17:57.185Z,4.59
2019-01-28T11:20:25.702Z,4.61
2019-01-28T11:22:55.022Z,4.63
2019-01-28T11:25:33.382Z,4.63
2019-01-28T11:28:03.426Z,4.60
2019-01-28T11:30:43.728Z,4.58
2019-01-28T11:33:13.755Z,4.65
2019-01-28T11:35:42.706Z,4.72
2019-01-28T11:38:11.151Z,4.79
2019-01-28T11:40:39.706Z,4.81
2019-01-28T11:43:10.746Z,4.82
2019-01-28T11:45:45.092Z,4.83
2019-01-28T11:48:13.569Z,4.82
2019-01-28T11:50:41.932Z,4.77
2019-01-28T11:53:10.334Z,4.78
2019-01-28T11:55:38.647Z,4.79
2019-01-28T11:58:09.000Z,4.78
2019-01-28T12:00:53.399Z,4.75
2019-01-28T12:03:21.742Z,4.75
2019-01-28T12:05:49.994Z,4.76
2019-01-28T12:08:18.315Z,4.70
2019-01-28T12:10:46.573Z,4.64
2019-01-28T12:13:14.840Z,4.65
2019-01-28T12:15:43.271Z,4.67
2019-01-28T12:18:11.516Z,4.63
2019-01-28T12:20:39.788Z,4.59
2019-01-28T12:23:08.048Z,4.58
2019-01-28T12:25:36.365Z,4.60
2019-01-28T12:28:05.069Z,4.65
2019-01-28T12:30:33.770Z,4.62
2019-01-28T12:33:02.039Z,4.61
2019-01-28T12:35:30.291Z,4.60
2019-01-28T12:37:58.544Z,4.59
2019-01-28T12:40:26.799Z,4.54
2019-01-28T12:42:55.074Z,4.56
2019-01-28T12:45:27.823Z,4.55
2019-01-28T12:47:56.162Z,4.57
2019-01-28T12:50:24.963Z,4.51
2019-01-28T12:52:53.298Z,4.47
2019-01-28T12:55:25.866Z,4.45
2019-01-28T12:57:54.189Z,4.44
2019-01-28T13:00:29.591Z,4.40
2019-01-28T13:02:57.845Z,4.38
2019-01-28T13:05:26.636Z,2.55
2019-01-28T13:07:54.938Z,4.34
2019-01-28T13:10:24.327Z,4.35
2019-01-28T13:12:52.609Z,4.35
2019-01-28T13:15:29.489Z,4.34
2019-01-28T13:17:57.794Z,4.35
2019-01-28T13:20:26.113Z,4.35
2019-01-28T13:22:54.384Z,4.37
2019-01-28T13:25:24.875Z,4.35
2019-01-28T13:27:53.138Z,4.34
2019-01-28T13:30:24.294Z,4.37
2019-01-28T13:32:52.546Z,4.43
2019-01-28T13:35:20.804Z,4.47
2019-01-28T13:37:49.054Z,2.66
2019-01-28T13:40:17.495Z,4.43
2019-01-28T13:42:45.754Z,4.34
2019-01-28T13:45:16.644Z,4.31
2019-01-28T13:47:45.098Z,4.27
2019-01-28T13:50:18.563Z,4.25
2019-01-28T13:52:46.880Z,4.20
2019-01-28T13:55:15.137Z,4.12
2019-01-28T13:57:43.393Z,4.09
2019-01-28T14:00:20.797Z,4.11
2019-01-28T14:02:49.053Z,4.14
2019-01-28T14:05:17.330Z,4.09
2019-01-28T14:07:45.583Z,4.11
2019-01-28T14:10:17.096Z,4.16
2019-01-28T14:12:45.354Z,4.18
2019-01-28T14:15:16.850Z,4.20
2019-01-28T14:17:45.109Z,4.18
2019-01-28T14:20:16.303Z,4.21
2019-01-28T14:22:44.564Z,4.20
2019-01-28T14:25:14.559Z,4.20
2019-01-28T14:27:43.048Z,4.23
2019-01-28T14:30:23.387Z,4.21
2019-01-28T14:32:51.640Z,4.24
2019-01-28T14:35:19.930Z,4.19
2019-01-28T14:37:48.181Z,4.18
2019-01-28T14:40:19.662Z,4.17
2019-01-28T14:42:47.915Z,4.08
2019-01-28T14:45:16.170Z,4.08
2019-01-28T14:47:44.425Z,4.05
2019-01-28T14:50:16.173Z,4.02
2019-01-28T14:52:44.444Z,4.01
2019-01-28T14:55:14.178Z,3.95
2019-01-28T14:57:42.470Z,3.91
2019-01-28T15:00:20.003Z,3.91
2019-01-28T15:02:48.278Z,3.90
2019-01-28T15:05:16.539Z,3.91
2019-01-28T15:07:44.829Z,3.93
2019-01-28T15:10:18.240Z,3.90
2019-01-28T15:12:47.720Z,3.84
2019-01-28T15:15:28.038Z,3.80
2019-01-28T15:17:57.018Z,3.73
2019-01-28T15:20:25.331Z,3.71
2019-01-28T15:22:53.613Z,3.62
2019-01-28T15:25:21.859Z,3.52
2019-01-28T15:27:50.131Z,3.51
2019-01-28T15:30:23.926Z,3.49
2019-01-28T15:32:53.121Z,3.49
2019-01-28T15:35:21.403Z,3.46
2019-01-28T15:37:49.684Z,3.38
2019-01-28T15:40:32.334Z,3.29
2019-01-28T15:43:00.611Z,3.27
2019-01-28T15:45:31.096Z,3.18
2019-01-28T15:47:59.347Z,3.15
2019-01-28T15:50:27.668Z,3.14
2019-01-28T15:52:55.929Z,3.13
2019-01-28T15:55:35.540Z,3.10
2019-01-28T15:58:05.727Z,3.07
2019-01-28T16:00:35.726Z,3.07
2019-01-28T16:03:04.578Z,3.07
2019-01-28T16:05:32.882Z,3.05
2019-01-28T16:08:01.289Z,3.01
2019-01-28T16:10:29.568Z,3.00
2019-01-28T16:12:57.811Z,2.96
2019-01-28T16:15:41.228Z,2.91
2019-01-28T16:18:09.654Z,2.93
2019-01-28T16:20:37.959Z,2.90
2019-01-28T16:23:06.303Z,2.91
2019-01-28T16:25:34.549Z,2.89
2019-01-28T16:28:02.799Z,2.92
2019-01-28T16:30:31.581Z,2.90
2019-01-28T16:32:59.813Z,2.91
2019-01-28T16:35:28.196Z,2.90
2019-01-28T16:37:56.452Z,2.87
2019-01-28T16:40:27.151Z,2.82
2019-01-28T16:42:55.586Z,2.83
2019-01-28T16:45:24.097Z,2.82
2019-01-28T16:47:52.352Z,2.81
2019-01-28T16:50:27.189Z,2.73
2019-01-28T16:52:53.521Z,2.70
2019-01-28T16:55:21.814Z,2.68
2019-01-28T16:57:52.791Z,2.64
2019-01-28T17:00:23.871Z,2.65
2019-01-28T17:02:52.203Z,-0.33
2019-01-28T17:05:20.449Z,2.63
2019-01-28T17:07:48.729Z,2.60
2019-01-28T17:10:17.121Z,2.58
2019-01-28T17:12:45.382Z,2.46
2019-01-28T17:15:16.561Z,2.42
2019-01-28T17:17:44.851Z,2.34
2019-01-28T17:20:17.376Z,2.29
2019-01-28T17:22:45.751Z,2.27
2019-01-28T17:25:16.845Z,2.22
2019-01-28T17:27:45.140Z,2.22
2019-01-28T17:30:19.555Z,2.20
2019-01-28T17:32:47.896Z,2.20
2019-01-28T17:35:16.158Z,2.15
2019-01-28T17:37:44.397Z,2.17
2019-01-28T17:40:18.490Z,2.14
2019-01-28T17:42:46.786Z,2.09
2019-01-28T17:45:16.445Z,2.05
2019-01-28T17:47:44.696Z,2.02
2019-01-28T17:50:13.793Z,2.01
2019-01-28T17:52:42.034Z,1.99
2019-01-28T17:55:11.955Z,1.97
2019-01-28T17:57:40.236Z,1.92
2019-01-28T18:00:29.858Z,1.87
2019-01-28T18:02:57.985Z,1.85
2019-01-28T18:05:26.326Z,1.81
2019-01-28T18:07:54.570Z,1.80
2019-01-28T18:10:22.842Z,1.77
2019-01-28T18:12:51.177Z,1.78
2019-01-28T18:15:25.038Z,1.80
2019-01-28T18:17:53.377Z,1.77
2019-01-28T18:20:21.698Z,1.78
2019-01-28T18:22:53.001Z,1.80
2019-01-28T18:25:29.713Z,1.75
2019-01-28T18:27:58.043Z,1.76
2019-01-28T18:30:43.822Z,1.74
2019-01-28T18:33:12.113Z,1.74
2019-01-28T18:35:40.382Z,1.74
2019-01-28T18:38:08.650Z,1.76
2019-01-28T18:40:36.912Z,1.75
2019-01-28T18:43:05.965Z,1.70
2019-01-28T18:45:34.236Z,1.74
2019-01-28T18:48:02.519Z,1.74
2019-01-28T18:50:30.772Z,1.70
2019-01-28T18:52:59.213Z,1.74
2019-01-28T18:55:27.542Z,1.75
2019-01-28T18:57:55.918Z,1.77
2019-01-28T19:00:29.860Z,1.77
2019-01-28T19:02:58.194Z,1.76
2019-01-28T19:05:46.290Z,1.77
2019-01-28T19:08:32.356Z,1.77
2019-01-28T19:11:18.713Z,1.78
2019-01-28T19:13:51.768Z,1.76
2019-01-28T19:16:39.709Z,1.77
2019-01-28T19:19:15.667Z,1.75
2019-01-28T19:21:48.357Z,1.72
2019-01-28T19:24:16.720Z,1.76
2019-01-28T19:26:45.027Z,1.75
2019-01-28T19:29:13.281Z,1.75
2019-01-28T19:31:43.233Z,1.77
2019-01-28T19:34:11.528Z,1.77
2019-01-28T19:36:39.830Z,1.78
2019-01-28T19:39:13.443Z,1.76
2019-01-28T19:41:41.956Z,1.77
2019-01-28T19:44:10.269Z,1.77
2019-01-28T19:46:38.602Z,1.79
2019-01-28T19:49:06.945Z,1.81
2019-01-28T19:51:35.256Z,1.81
2019-01-28T19:54:03.640Z,1.81
2019-01-28T19:56:31.940Z,1.80
2019-01-28T19:59:00.189Z,1.80
2019-01-28T20:01:28.466Z,1.80
2019-01-28T20:03:56.852Z,1.80
2019-01-28T20:06:25.128Z,1.81
2019-01-28T20:09:06.995Z,1.82
2019-01-28T20:11:38.206Z,1.79
2019-01-28T20:14:06.453Z,1.80
2019-01-28T20:16:34.742Z,1.81
2019-01-28T20:19:03.960Z,1.80
2019-01-28T20:21:32.276Z,1.83
2019-01-28T20:24:00.507Z,1.85
2019-01-28T20:26:28.778Z,1.85
2019-01-28T20:28:57.044Z,1.87
2019-01-28T20:31:25.282Z,1.86
2019-01-28T20:33:53.558Z,1.86
2019-01-28T20:36:21.805Z,1.84
2019-01-28T20:38:50.070Z,1.88
2019-01-28T20:41:18.334Z,1.91
2019-01-28T20:43:46.639Z,1.93
2019-01-28T20:46:14.918Z,1.90
2019-01-28T20:48:43.288Z,1.93
2019-01-28T20:51:11.503Z,1.95
2019-01-28T20:53:39.758Z,1.96
2019-01-28T20:56:08.143Z,1.96
2019-01-28T20:58:36.429Z,1.93
2019-01-28T21:01:04.690Z,1.93
2019-01-28T21:03:33.052Z,1.93
2019-01-28T21:06:01.332Z,1.93
2019-01-28T21:08:29.587Z,1.95
2019-01-28T21:10:57.887Z,1.92
2019-01-28T21:13:26.133Z,1.91
2019-01-28T21:15:54.546Z,1.87
2019-01-28T21:18:22.810Z,1.89
2019-01-28T21:20:51.061Z,1.89
2019-01-28T21:23:19.403Z,1.90
2019-01-28T21:25:47.734Z,1.90
2019-01-28T21:28:16.025Z,1.89
2019-01-28T21:30:44.439Z,1.88
2019-01-28T21:33:14.779Z,1.90
2019-01-28T21:35:47.632Z,1.86
2019-01-28T21:38:20.040Z,1.83
2019-01-28T21:40:48.302Z,1.86
2019-01-28T21:43:16.728Z,1.87
2019-01-28T21:45:45.102Z,1.87
2019-01-28T21:48:13.390Z,1.86
2019-01-28T21:50:41.669Z,1.87
2019-01-28T21:53:09.955Z,1.84
2019-01-28T21:55:39.875Z,1.83
2019-01-28T21:58:08.149Z,1.82
2019-01-28T22:00:36.415Z,1.78
2019-01-28T22:03:04.747Z,1.77
2019-01-28T22:05:33.124Z,1.81
2019-01-28T22:08:01.483Z,1.83
2019-01-28T22:10:29.779Z,1.83
2019-01-28T22:12:58.055Z,1.85
2019-01-28T22:15:26.382Z,1.87
2019-01-28T22:17:54.655Z,1.92
2019-01-28T22:20:22.917Z,1.91
2019-01-28T22:22:51.172Z,1.95
2019-01-28T22:25:19.471Z,1.96
2019-01-28T22:27:47.792Z,1.98
2019-01-28T22:30:25.074Z,2.01
2019-01-28T22:32:53.411Z,2.02
2019-01-28T22:35:21.663Z,2.00
2019-01-28T22:37:49.964Z,2.00
2019-01-28T22:40:19.156Z,2.01
2019-01-28T22:42:47.398Z,2.06
2019-01-28T22:45:17.422Z,2.09
2019-01-28T22:47:45.837Z,2.09
2019-01-28T22:50:16.138Z,2.13
2019-01-28T22:52:44.505Z,2.10
2019-01-28T22:55:15.002Z,2.10
2019-01-28T22:57:43.293Z,2.09
2019-01-28T23:00:21.997Z,2.02
2019-01-28T23:02:50.241Z,2.02
2019-01-28T23:05:18.599Z,2.02
2019-01-28T23:07:46.904Z,1.94
2019-01-28T23:10:15.181Z,1.93
2019-01-28T23:12:43.460Z,1.90
2019-01-28T23:15:11.748Z,1.90
2019-01-28T23:17:40.014Z,1.92
2019-01-28T23:20:08.950Z,1.90
2019-01-28T23:22:37.339Z,1.92
2019-01-28T23:25:06.556Z,1.89
2019-01-28T23:27:34.852Z,1.89
2019-01-28T23:30:03.108Z,1.89
2019-01-28T23:32:31.370Z,1.90
2019-01-28T23:34:59.679Z,1.89
2019-01-28T23:37:27.952Z,1.91
2019-01-28T23:39:56.322Z,1.90
2019-01-28T23:42:24.645Z,1.88
2019-01-28T23:44:53.008Z,1.90
2019-01-28T23:47:21.272Z,1.91
2019-01-28T23:49:49.532Z,1.90
2019-01-28T23:52:24.790Z,1.88
2019-01-28T23:54:47.806Z,1.90
2019-01-28T23:57:16.156Z,1.90
2019-01-28T23:59:44.415Z,1.89
